Time;durP1;ratioP1;P1;durP2;ratioP2;P2;SDS_P1;SDS_P2;PMS_P1;PMS_P2;Temp;Humidity;BMP_temperature;BMP_pressure;BME280_temperature;BME280_humidity;BME280_pressure;Samples;Min_cycle;Max_cycle;Signal;HPM_P1;HPM_P2
2023/02/08 00:01:14;;;;;;;35.75;14.18;;;;;;;;;;5019828;28;20599;-75
2023/02/08 00:03:41;;;;;;;30.75;11.43;;;;;;;;;;5020420;28;20588;-75
2023/02/08 00:06:10;;;;;;;10.65;4.40;;;;;;;;;;5020405;28;20215;-74
2023/02/08 00:08:39;;;;;;;10.20;4.75;;;;;;;;;;5019789;28;20250;-75
2023/02/08 00:11:09;;;;;;;31.02;13.02;;;;;;;;;;5019516;28;20587;-74
2023/02/08 00:13:37;;;;;;;31.55;11.88;;;;;;;;;;5019504;28;20710;-75
2023/02/08 00:16:05;;;;;;;32.63;12.70;;;;;;;;;;5019484;28;20227;-74
2023/02/08 00:18:42;;;;;;;23.42;9.77;;;;;;;;;;5019509;28;20226;-74
2023/02/08 00:21:10;;;;;;;29.35;11.75;;;;;;;;;;5011257;28;20211;-74
2023/02/08 00:23:46;;;;;;;33.42;13.30;;;;;;;;;;5019390;28;20211;-74
2023/02/08 00:26:14;;;;;;;11.15;5.05;;;;;;;;;;5015568;28;20214;-75
2023/02/08 00:28:43;;;;;;;28.50;11.60;;;;;;;;;;5019580;28;20218;-75
2023/02/08 00:31:12;;;;;;;27.73;10.95;;;;;;;;;;5020877;28;20306;-74
2023/02/08 00:33:40;;;;;;;27.42;10.45;;;;;;;;;;5018869;28;20238;-74
2023/02/08 00:36:11;;;;;;;33.13;13.23;;;;;;;;;;5019546;28;20270;-74
2023/02/08 00:38:38;;;;;;;28.45;10.52;;;;;;;;;;5019865;28;20222;-73
2023/02/08 00:41:09;;;;;;;14.55;6.05;;;;;;;;;;5019286;28;20615;-74
2023/02/08 00:43:37;;;;;;;33.50;12.15;;;;;;;;;;5019573;28;20227;-74
2023/02/08 00:46:04;;;;;;;15.80;7.30;;;;;;;;;;5019189;28;20238;-74
2023/02/08 00:48:35;;;;;;;25.67;9.48;;;;;;;;;;5019190;28;20218;-74
2023/02/08 00:51:05;;;;;;;12.50;5.07;;;;;;;;;;5019561;28;20230;-74
2023/02/08 00:53:43;;;;;;;20.50;8.18;;;;;;;;;;5018947;28;20689;-74
2023/02/08 00:56:16;;;;;;;11.43;4.63;;;;;;;;;;5019590;28;20272;-74
2023/02/08 00:58:44;;;;;;;21.88;8.27;;;;;;;;;;5019663;28;20218;-74
2023/02/08 01:01:12;;;;;;;12.93;5.95;;;;;;;;;;5019197;28;20280;-74
2023/02/08 01:03:41;;;;;;;18.65;8.23;;;;;;;;;;5019521;28;20222;-74
2023/02/08 01:06:09;;;;;;;20.77;8.13;;;;;;;;;;5019393;28;20223;-74
2023/02/08 01:08:38;;;;;;;11.55;4.75;;;;;;;;;;5019927;28;20230;-74
2023/02/08 01:11:07;;;;;;;20.45;8.70;;;;;;;;;;5018742;28;20223;-74
2023/02/08 01:13:36;;;;;;;15.90;6.68;;;;;;;;;;5019115;28;20273;-74
2023/02/08 01:16:08;;;;;;;37.45;11.95;;;;;;;;;;5018906;28;20235;-74
2023/02/08 01:18:36;;;;;;;24.88;8.98;;;;;;;;;;5019220;28;20595;-75
2023/02/08 01:21:05;;;;;;;20.15;7.85;;;;;;;;;;5019165;28;20217;-75
2023/02/08 01:23:35;;;;;;;36.17;14.23;;;;;;;;;;5022240;28;20301;-75
2023/02/08 01:26:09;;;;;;;40.55;15.60;;;;;;;;;;5018906;28;20229;-74
2023/02/08 01:28:39;;;;;;;46.33;16.92;;;;;;;;;;5021256;28;20630;-74
2023/02/08 01:31:07;;;;;;;40.58;15.20;;;;;;;;;;5028473;28;20266;-74
2023/02/08 01:33:37;;;;;;;34.72;12.90;;;;;;;;;;5039463;28;20328;-75
2023/02/08 01:36:08;;;;;;;35.72;13.10;;;;;;;;;;5038636;28;20243;-74
2023/02/08 01:38:37;;;;;;;32.90;12.20;;;;;;;;;;5039216;28;20228;-75
2023/02/08 01:41:05;;;;;;;31.00;11.48;;;;;;;;;;5039086;28;20556;-75
2023/02/08 01:43:35;;;;;;;37.80;14.57;;;;;;;;;;5039095;28;20210;-75
2023/02/08 01:46:05;;;;;;;39.50;13.93;;;;;;;;;;5039722;28;20220;-76
2023/02/08 01:48:35;;;;;;;34.55;12.88;;;;;;;;;;5038513;28;20266;-75
2023/02/08 01:51:06;;;;;;;34.88;12.35;;;;;;;;;;5035706;28;20214;-75
2023/02/08 01:53:35;;;;;;;27.60;11.27;;;;;;;;;;5018532;28;20223;-75
2023/02/08 01:56:03;;;;;;;39.92;15.23;;;;;;;;;;5018580;28;20238;-74
2023/02/08 01:58:33;;;;;;;33.92;11.70;;;;;;;;;;5018418;28;20229;-75
2023/02/08 02:01:01;;;;;;;28.83;11.63;;;;;;;;;;5018379;28;20219;-74
2023/02/08 02:03:30;;;;;;;20.75;8.07;;;;;;;;;;5018090;28;20229;-74
2023/02/08 02:06:02;;;;;;;32.55;11.40;;;;;;;;;;5017970;28;20214;-74
2023/02/08 02:08:31;;;;;;;37.20;13.82;;;;;;;;;;5017922;28;20218;-74
2023/02/08 02:11:01;;;;;;;36.20;13.35;;;;;;;;;;5017788;28;20218;-75
2023/02/08 02:13:29;;;;;;;42.75;13.77;;;;;;;;;;5018383;28;20223;-74
2023/02/08 02:15:58;;;;;;;29.02;10.27;;;;;;;;;;5018159;28;20239;-74
2023/02/08 02:18:27;;;;;;;29.67;10.43;;;;;;;;;;5017824;28;20207;-74
2023/02/08 02:21:11;;;;;;;36.10;13.82;;;;;;;;;;5017798;28;20218;-74
2023/02/08 02:24:03;;;;;;;75.88;20.17;;;;;;;;;;5018102;28;20218;-74
2023/02/08 02:26:44;;;;;;;31.77;11.43;;;;;;;;;;5020975;28;20218;-73
2023/02/08 02:29:25;;;;;;;54.58;20.63;;;;;;;;;;5017711;28;20218;-74
2023/02/08 02:32:11;;;;;;;43.30;15.20;;;;;;;;;;5018031;28;20206;-74
2023/02/08 02:34:43;;;;;;;73.25;25.98;;;;;;;;;;5017438;28;20218;-74
2023/02/08 02:37:24;;;;;;;31.60;11.20;;;;;;;;;;5017337;28;20570;-74
2023/02/08 02:39:58;;;;;;;26.67;9.95;;;;;;;;;;5017535;28;20230;-74
2023/02/08 02:45:21;;;;;;;20.60;7.82;;;;;;;;;;5017626;28;20209;-74
2023/02/08 02:47:56;;;;;;;32.72;12.18;;;;;;;;;;5017739;28;20214;-74
2023/02/08 02:50:30;;;;;;;31.52;11.68;;;;;;;;;;5017939;28;20625;-74
2023/02/08 02:53:00;;;;;;;42.88;15.50;;;;;;;;;;5013315;28;20292;-74
2023/02/08 02:55:29;;;;;;;20.33;8.43;;;;;;;;;;5008240;28;20280;-74
2023/02/08 02:57:58;;;;;;;17.75;6.43;;;;;;;;;;5019903;28;20709;-75
2023/02/08 03:00:26;;;;;;;27.85;10.77;;;;;;;;;;5001903;28;20226;-75
2023/02/08 03:02:57;;;;;;;30.52;13.18;;;;;;;;;;5001974;28;20585;-75
2023/02/08 03:05:30;;;;;;;30.17;10.82;;;;;;;;;;5001871;28;20246;-74
2023/02/08 03:08:02;;;;;;;32.33;12.38;;;;;;;;;;5001993;28;20215;-74
2023/02/08 03:10:40;;;;;;;48.80;17.30;;;;;;;;;;5001086;28;20272;-75
2023/02/08 03:13:14;;;;;;;80.78;28.73;;;;;;;;;;5002284;28;20227;-74
2023/02/08 03:15:50;;;;;;;34.50;12.18;;;;;;;;;;5001817;28;20218;-74
2023/02/08 03:18:23;;;;;;;84.40;29.42;;;;;;;;;;5001147;28;20215;-75
2023/02/08 03:20:54;;;;;;;82.53;28.35;;;;;;;;;;5035441;28;20222;-74
2023/02/08 03:23:23;;;;;;;30.05;11.80;;;;;;;;;;5030956;28;20267;-74
2023/02/08 03:25:52;;;;;;;36.72;13.13;;;;;;;;;;5017950;28;20214;-74
2023/02/08 03:28:23;;;;;;;26.75;11.52;;;;;;;;;;5021294;28;20645;-74
2023/02/08 03:30:59;;;;;;;17.60;8.10;;;;;;;;;;5020170;28;20222;-73
2023/02/08 03:33:46;;;;;;;27.02;10.52;;;;;;;;;;5020525;28;20514;-74
2023/02/08 03:36:18;;;;;;;23.02;9.68;;;;;;;;;;5012451;28;20243;-73
2023/02/08 03:38:51;;;;;;;21.60;8.63;;;;;;;;;;5020781;28;20229;-73
2023/02/08 03:41:21;;;;;;;17.27;7.80;;;;;;;;;;5019548;28;20214;-74
2023/02/08 03:43:53;;;;;;;11.00;6.03;;;;;;;;;;5020539;28;20280;-74
2023/02/08 03:46:31;;;;;;;15.35;6.70;;;;;;;;;;5020478;28;20214;-74
2023/02/08 03:49:13;;;;;;;15.52;6.88;;;;;;;;;;5018494;28;20218;-72
2023/02/08 03:51:55;;;;;;;15.23;6.47;;;;;;;;;;5020701;28;20222;-73
2023/02/08 03:54:27;;;;;;;16.02;6.00;;;;;;;;;;5017154;28;20295;-74
2023/02/08 03:56:57;;;;;;;16.40;6.63;;;;;;;;;;5020764;28;20697;-73
2023/02/08 03:59:27;;;;;;;17.30;7.25;;;;;;;;;;5015952;28;20223;-74
2023/02/08 04:02:05;;;;;;;21.85;10.07;;;;;;;;;;5008088;28;20209;-73
2023/02/08 04:04:37;;;;;;;17.05;6.75;;;;;;;;;;5000259;28;20698;-74
2023/02/08 04:07:06;;;;;;;17.95;8.70;;;;;;;;;;5004073;28;20222;-74
2023/02/08 04:09:36;;;;;;;23.05;10.02;;;;;;;;;;5017483;28;20218;-73
2023/02/08 04:12:05;;;;;;;16.45;7.90;;;;;;;;;;5019601;28;20222;-74
2023/02/08 04:14:32;;;;;;;26.45;9.50;;;;;;;;;;5019963;28;20626;-74
2023/02/08 04:17:00;;;;;;;16.10;7.85;;;;;;;;;;5019526;28;20238;-74
2023/02/08 04:19:28;;;;;;;14.80;6.28;;;;;;;;;;5020026;28;20253;-73
2023/02/08 04:21:59;;;;;;;21.75;7.07;;;;;;;;;;5020531;28;20406;-74
2023/02/08 04:24:28;;;;;;;27.02;9.82;;;;;;;;;;5021272;28;20603;-74
2023/02/08 04:26:57;;;;;;;27.02;10.65;;;;;;;;;;5020418;28;20214;-74
2023/02/08 04:29:25;;;;;;;15.70;7.30;;;;;;;;;;5021104;28;20218;-74
2023/02/08 04:31:53;;;;;;;13.57;5.28;;;;;;;;;;5020378;28;20309;-74
2023/02/08 04:34:20;;;;;;;16.20;6.28;;;;;;;;;;5021132;28;20230;-74
2023/02/08 04:36:48;;;;;;;27.88;10.88;;;;;;;;;;5020166;28;20623;-74
2023/02/08 04:39:16;;;;;;;21.88;8.48;;;;;;;;;;5020121;28;20210;-74
2023/02/08 04:41:46;;;;;;;18.08;8.52;;;;;;;;;;5019197;28;20226;-74
2023/02/08 04:44:15;;;;;;;16.13;6.70;;;;;;;;;;5019794;28;20219;-74
2023/02/08 04:46:46;;;;;;;16.85;8.45;;;;;;;;;;5019239;28;20226;-74
2023/02/08 04:49:14;;;;;;;27.83;13.35;;;;;;;;;;5019941;28;20249;-74
2023/02/08 04:51:41;;;;;;;13.05;4.93;;;;;;;;;;5019434;28;20223;-75
2023/02/08 04:54:09;;;;;;;12.70;5.10;;;;;;;;;;5019496;28;20225;-73
2023/02/08 04:56:37;;;;;;;9.93;4.03;;;;;;;;;;5019251;28;20281;-75
2023/02/08 04:59:08;;;;;;;15.70;6.28;;;;;;;;;;5019251;28;20230;-74
2023/02/08 05:01:41;;;;;;;21.27;10.73;;;;;;;;;;5019880;28;20341;-75
2023/02/08 05:04:08;;;;;;;25.92;9.57;;;;;;;;;;5019513;28;20218;-74
2023/02/08 05:06:38;;;;;;;21.77;8.23;;;;;;;;;;5019375;28;20219;-74
2023/02/08 05:09:07;;;;;;;14.60;6.15;;;;;;;;;;5018905;28;20230;-74
2023/02/08 05:11:36;;;;;;;14.77;7.20;;;;;;;;;;5019365;28;20219;-74
2023/02/08 05:14:03;;;;;;;15.93;6.53;;;;;;;;;;5019917;28;20268;-75
2023/02/08 05:16:32;;;;;;;18.02;9.07;;;;;;;;;;5018727;28;20217;-75
2023/02/08 05:19:02;;;;;;;8.50;3.72;;;;;;;;;;5037858;28;20486;-75
2023/02/08 05:21:29;;;;;;;16.58;6.72;;;;;;;;;;5039626;28;20340;-75
2023/02/08 05:23:58;;;;;;;12.23;5.45;;;;;;;;;;5038643;28;20478;-74
2023/02/08 05:26:26;;;;;;;14.93;9.25;;;;;;;;;;5038357;28;20229;-74
2023/02/08 05:28:53;;;;;;;15.32;5.68;;;;;;;;;;5036594;28;20215;-73
2023/02/08 05:31:22;;;;;;;15.45;5.85;;;;;;;;;;5020181;28;20252;-74
2023/02/08 05:33:51;;;;;;;25.92;12.90;;;;;;;;;;5019104;28;20226;-75
2023/02/08 05:36:22;;;;;;;22.13;9.15;;;;;;;;;;5018690;28;20496;-74
2023/02/08 05:38:50;;;;;;;19.52;9.32;;;;;;;;;;5018100;28;20581;-74
2023/02/08 05:41:18;;;;;;;18.17;8.10;;;;;;;;;;5017935;28;20215;-75
2023/02/08 05:43:45;;;;;;;20.30;8.20;;;;;;;;;;5018817;28;20229;-74
2023/02/08 05:46:16;;;;;;;17.52;8.18;;;;;;;;;;5020968;28;20210;-75
2023/02/08 05:48:44;;;;;;;40.30;10.80;;;;;;;;;;5026055;28;20309;-74
2023/02/08 05:51:12;;;;;;;14.95;6.05;;;;;;;;;;5018449;28;20599;-74
2023/02/08 05:53:42;;;;;;;22.92;9.88;;;;;;;;;;5015889;28;20218;-75
2023/02/08 05:56:10;;;;;;;23.52;10.07;;;;;;;;;;5017864;28;20241;-74
2023/02/08 05:58:38;;;;;;;24.02;10.63;;;;;;;;;;5017319;28;20277;-75
2023/02/08 06:01:11;;;;;;;35.78;15.50;;;;;;;;;;5018178;28;20222;-73
2023/02/08 06:03:39;;;;;;;31.10;10.95;;;;;;;;;;5018293;28;20297;-75
2023/02/08 06:06:09;;;;;;;45.17;12.02;;;;;;;;;;5019719;28;20214;-74
2023/02/08 06:08:37;;;;;;;20.80;10.48;;;;;;;;;;5016718;28;20500;-74
2023/02/08 06:11:07;;;;;;;31.75;11.93;;;;;;;;;;5016440;28;20246;-73
2023/02/08 06:13:35;;;;;;;26.80;11.70;;;;;;;;;;5017157;28;20242;-74
2023/02/08 06:16:03;;;;;;;22.65;9.05;;;;;;;;;;5017262;28;20233;-74
2023/02/08 06:18:31;;;;;;;30.35;11.32;;;;;;;;;;5016445;28;20289;-74
2023/02/08 06:20:58;;;;;;;23.08;9.88;;;;;;;;;;5024686;28;20217;-74
2023/02/08 06:23:30;;;;;;;17.15;8.00;;;;;;;;;;5035042;28;20630;-74
2023/02/08 06:25:58;;;;;;;25.27;9.02;;;;;;;;;;5031003;28;20214;-74
2023/02/08 06:28:27;;;;;;;32.65;11.88;;;;;;;;;;5035362;28;20685;-74
2023/02/08 06:30:59;;;;;;;39.53;14.88;;;;;;;;;;5035524;28;20291;-75
2023/02/08 06:33:27;;;;;;;29.90;11.10;;;;;;;;;;5033899;28;20217;-74
2023/02/08 06:35:55;;;;;;;28.70;12.00;;;;;;;;;;5034650;28;20301;-74
2023/02/08 06:38:23;;;;;;;32.03;15.18;;;;;;;;;;5035158;28;20234;-74
2023/02/08 06:40:53;;;;;;;24.63;11.73;;;;;;;;;;5034781;28;20217;-74
2023/02/08 06:43:23;;;;;;;44.17;13.90;;;;;;;;;;5034696;28;20218;-74
2023/02/08 06:45:53;;;;;;;34.10;12.48;;;;;;;;;;5035177;28;20218;-74
2023/02/08 06:48:22;;;;;;;26.70;12.35;;;;;;;;;;5033473;28;20333;-73
2023/02/08 06:50:53;;;;;;;18.13;8.13;;;;;;;;;;5012626;28;20254;-73
2023/02/08 06:53:22;;;;;;;29.85;11.27;;;;;;;;;;5015403;28;20218;-74
2023/02/08 06:55:53;;;;;;;30.55;16.17;;;;;;;;;;5013186;28;20219;-74
2023/02/08 06:58:21;;;;;;;26.45;10.75;;;;;;;;;;4994986;28;20290;-74
2023/02/08 07:00:49;;;;;;;32.05;13.48;;;;;;;;;;5013562;28;20215;-74
2023/02/08 07:03:18;;;;;;;37.05;15.30;;;;;;;;;;5015409;28;20213;-74
2023/02/08 07:05:49;;;;;;;16.65;15.43;;;;;;;;;;5030848;28;20210;-74
2023/02/08 07:08:20;;;;;;;30.85;12.13;;;;;;;;;;5018939;28;20670;-74
2023/02/08 07:10:48;;;;;;;32.72;13.73;;;;;;;;;;5015287;28;20606;-74
2023/02/08 07:13:16;;;;;;;53.78;22.10;;;;;;;;;;5015748;28;20234;-74
2023/02/08 07:16:03;;;;;;;74.35;28.02;;;;;;;;;;5015195;28;20285;-75
2023/02/08 07:18:32;;;;;;;46.95;20.17;;;;;;;;;;5015465;28;20731;-74
2023/02/08 07:21:05;;;;;;;32.20;11.88;;;;;;;;;;5015747;28;20737;-74
2023/02/08 07:23:33;;;;;;;39.28;16.10;;;;;;;;;;5014054;28;20229;-73
2023/02/08 07:26:06;;;;;;;40.60;18.33;;;;;;;;;;5011885;28;20214;-73
2023/02/08 07:28:33;;;;;;;33.63;13.73;;;;;;;;;;5012781;28;20257;-73
2023/02/08 07:31:06;;;;;;;97.18;35.10;;;;;;;;;;5015684;28;20222;-74
2023/02/08 07:33:35;;;;;;;54.90;21.35;;;;;;;;;;5014285;28;20226;-74
2023/02/08 07:36:09;;;;;;;92.88;34.88;;;;;;;;;;5001346;28;20216;-73
2023/02/08 07:38:41;;;;;;;58.20;24.05;;;;;;;;;;5005243;28;20231;-74
2023/02/08 07:41:10;;;;;;;44.60;16.75;;;;;;;;;;5016520;28;20233;-74
2023/02/08 07:43:39;;;;;;;64.82;23.92;;;;;;;;;;5017329;28;20211;-74
2023/02/08 07:46:09;;;;;;;49.58;18.27;;;;;;;;;;5018153;28;20505;-74
2023/02/08 07:49:08;;;;;;;84.07;32.65;;;;;;;;;;5017315;28;20512;-74
2023/02/08 07:51:38;;;;;;;80.68;31.65;;;;;;;;;;5016507;28;20607;-73
2023/02/08 07:54:14;;;;;;;51.03;21.42;;;;;;;;;;5015921;28;20504;-74
2023/02/08 07:56:55;;;;;;;113.43;40.70;;;;;;;;;;5015030;28;20288;-74
2023/02/08 07:59:26;;;;;;;52.50;20.65;;;;;;;;;;5019603;28;20290;-73
2023/02/08 08:02:01;;;;;;;103.55;38.75;;;;;;;;;;5010786;28;20501;-75
2023/02/08 08:04:32;;;;;;;83.50;30.70;;;;;;;;;;5015026;28;20231;-74
2023/02/08 08:07:07;;;;;;;59.25;23.48;;;;;;;;;;5019056;28;20214;-75
2023/02/08 08:09:36;;;;;;;49.10;21.10;;;;;;;;;;5012625;28;20575;-74
2023/02/08 08:12:05;;;;;;;91.72;40.28;;;;;;;;;;5001700;28;20234;-73
2023/02/08 08:14:52;;;;;;;92.78;35.58;;;;;;;;;;5000221;28;20517;-73
2023/02/08 08:17:24;;;;;;;49.05;18.48;;;;;;;;;;5009122;28;20253;-74
2023/02/08 08:19:52;;;;;;;40.08;17.23;;;;;;;;;;5008633;28;20317;-74
2023/02/08 08:22:22;;;;;;;53.50;21.70;;;;;;;;;;5014445;28;20223;-75
2023/02/08 08:24:58;;;;;;;46.25;18.42;;;;;;;;;;5007503;28;20222;-75
2023/02/08 08:27:33;;;;;;;45.03;22.52;;;;;;;;;;5017894;28;20497;-75
2023/02/08 08:30:09;;;;;;;51.22;21.08;;;;;;;;;;5016135;28;20218;-75
2023/02/08 08:33:00;;;;;;;57.50;27.25;;;;;;;;;;5004480;28;20245;-75
2023/02/08 08:35:53;;;;;;;50.95;20.88;;;;;;;;;;5001782;28;20211;-73
2023/02/08 08:38:22;;;;;;;36.60;20.10;;;;;;;;;;5014741;28;20234;-74
2023/02/08 08:40:54;;;;;;;58.17;24.25;;;;;;;;;;5007516;28;20484;-76
2023/02/08 08:43:42;;;;;;;45.92;26.63;;;;;;;;;;5008557;28;20218;-75
2023/02/08 08:46:13;;;;;;;35.42;23.92;;;;;;;;;;5014250;28;20244;-75
2023/02/08 08:49:00;;;;;;;47.13;22.77;;;;;;;;;;5015268;28;20211;-76
2023/02/08 08:51:34;;;;;;;30.77;18.48;;;;;;;;;;5016713;28;20222;-75
2023/02/08 08:57:00;;;;;;;52.92;23.48;;;;;;;;;;5005609;28;20222;-75
2023/02/08 08:59:37;;;;;;;59.45;25.73;;;;;;;;;;5005803;28;20623;-76
2023/02/08 09:02:05;;;;;;;55.63;22.23;;;;;;;;;;5018440;28;20456;-76
2023/02/08 09:04:46;;;;;;;53.22;24.67;;;;;;;;;;5017043;28;20559;-76
2023/02/08 09:07:35;;;;;;;40.47;18.90;;;;;;;;;;5017665;28;20225;-77
2023/02/08 09:10:05;;;;;;;44.90;18.88;;;;;;;;;;5015292;28;20264;-76
2023/02/08 09:15:19;;;;;;;90.90;36.88;;;;;;;;;;5005928;28;20234;-76
2023/02/08 09:17:51;;;;;;;97.47;39.22;;;;;;;;;;5008874;28;20586;-77
2023/02/08 09:20:30;;;;;;;83.78;33.70;;;;;;;;;;5016942;28;20218;-76
2023/02/08 09:32:36;;;;;;;105.07;46.65;;;;;;;;;;4931157;29;20312;-76
2023/02/08 09:35:15;;;;;;;122.97;39.97;;;;;;;;;;4944497;29;20250;-76
2023/02/08 09:38:16;;;;;;;89.82;36.85;;;;;;;;;;4935387;29;20316;-75
2023/02/08 09:40:54;;;;;;;66.88;28.50;;;;;;;;;;4936650;29;20631;-76
2023/02/08 09:43:28;;;;;;;39.65;17.75;;;;;;;;;;4940961;29;20213;-79
2023/02/08 09:49:42;;;;;;;39.80;21.30;;;;;;;;;;4919390;29;20209;-77
2023/02/08 09:55:34;;;;;;;42.80;22.42;;;;;;;;;;4900159;29;20228;-76
2023/02/08 09:58:04;;;;;;;41.83;25.58;;;;;;;;;;4906585;29;20725;-77
2023/02/08 10:13:20;;;;;;;27.42;12.82;;;;;;;;;;4935533;29;20230;-77
2023/02/08 10:16:15;;;;;;;96.47;42.47;;;;;;;;;;4928503;29;20246;-77
2023/02/08 10:19:02;;;;;;;50.15;25.88;;;;;;;;;;4999128;28;20251;-77
2023/02/08 10:28:03;;;;;;;63.40;28.55;;;;;;;;;;4990018;28;20302;-78
2023/02/08 10:30:51;;;;;;;49.47;24.92;;;;;;;;;;5009635;28;20690;-75
2023/02/08 10:33:22;;;;;;;71.60;31.23;;;;;;;;;;5012417;28;20280;-75
2023/02/08 10:36:01;;;;;;;58.92;24.98;;;;;;;;;;5015441;28;20317;-75
2023/02/08 10:38:37;;;;;;;39.10;18.88;;;;;;;;;;5008748;28;20262;-76
2023/02/08 10:41:07;;;;;;;44.33;21.67;;;;;;;;;;5016827;28;20230;-75
2023/02/08 10:43:44;;;;;;;53.22;25.92;;;;;;;;;;5004001;28;20219;-76
2023/02/08 10:46:19;;;;;;;43.20;21.52;;;;;;;;;;5009482;28;20223;-77
2023/02/08 10:49:08;;;;;;;38.65;20.63;;;;;;;;;;5006997;28;20231;-75
2023/02/08 10:51:36;;;;;;;24.08;12.35;;;;;;;;;;5010721;28;20209;-75
2023/02/08 10:54:07;;;;;;;54.63;24.30;;;;;;;;;;5006347;28;20216;-73
2023/02/08 10:56:56;;;;;;;34.95;17.95;;;;;;;;;;4996474;28;20315;-76
2023/02/08 10:59:44;;;;;;;28.98;15.95;;;;;;;;;;5004169;28;20259;-75
2023/02/08 11:08:19;;;;;;;110.43;42.08;;;;;;;;;;5016924;28;20227;-76
2023/02/08 11:11:34;;;;;;;94.28;35.72;;;;;;;;;;5008622;28;20296;-77
2023/02/08 11:14:21;;;;;;;27.33;16.58;;;;;;;;;;5016116;28;20218;-77
2023/02/08 11:16:58;;;;;;;43.97;21.35;;;;;;;;;;5019499;28;20238;-75
2023/02/08 11:22:43;;;;;;;90.63;36.15;;;;;;;;;;5017140;28;20232;-75
2023/02/08 11:25:31;;;;;;;18.60;10.77;;;;;;;;;;5014544;28;20215;-77
2023/02/08 11:28:23;;;;;;;102.03;39.47;;;;;;;;;;5020386;28;20242;-75
2023/02/08 11:31:17;;;;;;;71.95;28.08;;;;;;;;;;5003396;28;20282;-76
2023/02/08 11:34:10;;;;;;;22.80;11.60;;;;;;;;;;5003620;28;20214;-75
2023/02/08 11:36:43;;;;;;;111.93;42.80;;;;;;;;;;5011031;28;20734;-74
2023/02/08 11:39:17;;;;;;;22.00;11.93;;;;;;;;;;5009542;28;20245;-75
2023/02/08 11:41:59;;;;;;;64.13;28.55;;;;;;;;;;5011569;28;20354;-74
2023/02/08 11:44:56;;;;;;;20.92;11.50;;;;;;;;;;5007204;28;20227;-76
2023/02/08 11:47:38;;;;;;;134.32;46.58;;;;;;;;;;5001006;28;20215;-75
2023/02/08 11:53:32;;;;;;;;;;;;;;;;;;;;;
2023/02/08 11:56:32;;;;;;;125.80;45.83;;;;;;;;;;5002695;28;20212;-75
2023/02/08 12:01:52;;;;;;;62.38;26.45;;;;;;;;;;5007359;28;20250;-75
2023/02/08 12:04:21;;;;;;;22.77;12.50;;;;;;;;;;5013352;28;20214;-76
2023/02/08 12:10:42;;;;;;;23.05;15.55;;;;;;;;;;4987458;28;20275;-75
2023/02/08 12:13:31;;;;;;;21.42;14.07;;;;;;;;;;4982996;28;20227;-77
2023/02/08 12:16:14;;;;;;;105.10;36.38;;;;;;;;;;5014002;28;20281;-74
2023/02/08 12:19:05;;;;;;;91.88;35.10;;;;;;;;;;5013126;28;20211;-75
2023/02/08 12:21:38;;;;;;;124.88;50.35;;;;;;;;;;5014905;28;20222;-75
2023/02/08 12:24:41;;;;;;;56.67;24.70;;;;;;;;;;5014124;28;20203;-73
2023/02/08 12:27:29;;;;;;;19.70;13.32;;;;;;;;;;5005224;28;20620;-75
2023/02/08 12:45:51;;;;;;;59.53;24.95;;;;;;;;;;4997376;28;20545;-74
2023/02/08 12:48:27;;;;;;;106.07;38.58;;;;;;;;;;5015424;28;20294;-73
2023/02/08 12:51:05;;;;;;;65.35;27.40;;;;;;;;;;5017262;28;20606;-76
2023/02/08 12:54:14;;;;;;;27.58;14.50;;;;;;;;;;5001079;28;20215;-76
2023/02/08 12:56:46;;;;;;;35.35;20.88;;;;;;;;;;5010606;28;20226;-75
2023/02/08 12:59:29;;;;;;;31.83;16.00;;;;;;;;;;5015289;28;20250;-76
2023/02/08 13:08:40;;;;;;;91.47;36.28;;;;;;;;;;4932284;29;20217;-74
2023/02/08 13:11:16;;;;;;;58.42;24.00;;;;;;;;;;5012410;28;20230;-75
2023/02/08 13:13:58;;;;;;;16.73;12.15;;;;;;;;;;5014081;28;20268;-76
2023/02/08 13:16:40;;;;;;;32.83;19.30;;;;;;;;;;5011865;28;20341;-75
2023/02/08 13:20:00;;;;;;;116.45;42.33;;;;;;;;;;5012492;28;20230;-74
2023/02/08 13:22:32;;;;;;;109.88;38.83;;;;;;;;;;5010501;28;20267;-76
2023/02/08 13:28:27;;;;;;;35.38;19.60;;;;;;;;;;4930230;29;20897;-77
2023/02/08 13:31:08;;;;;;;84.07;33.53;;;;;;;;;;4931939;29;20213;-74
2023/02/08 13:50:16;;;;;;;;;;;;;;;;;;;;;
2023/02/08 14:06:13;;;;;;;39.28;18.88;;;;;;;;;;5013100;28;20222;-74
2023/02/08 14:08:50;;;;;;;42.28;18.35;;;;;;;;;;5016753;28;20219;-75
2023/02/08 14:14:35;;;;;;;64.43;25.02;;;;;;;;;;5011896;28;20325;-76
2023/02/08 14:17:23;;;;;;;17.25;10.65;;;;;;;;;;5014884;28;20218;-74
2023/02/08 14:29:32;;;;;;;53.67;22.33;;;;;;;;;;4993518;28;20254;-76
2023/02/08 14:32:03;;;;;;;114.30;41.90;;;;;;;;;;5006202;28;20223;-75
2023/02/08 14:40:24;;;;;;;22.50;14.07;;;;;;;;;;5000037;28;20230;-76
2023/02/08 14:43:24;;;;;;;124.95;45.78;;;;;;;;;;5001478;28;20505;-74
2023/02/08 14:46:02;;;;;;;52.63;21.60;;;;;;;;;;5003776;28;20632;-74
2023/02/08 14:48:52;;;;;;;44.90;22.15;;;;;;;;;;5000088;28;20272;-74
2023/02/08 14:51:38;;;;;;;110.55;41.00;;;;;;;;;;5001238;28;20213;-74
2023/02/08 14:54:19;;;;;;;91.35;36.67;;;;;;;;;;5000106;28;20273;-75
2023/02/08 14:56:55;;;;;;;39.92;21.52;;;;;;;;;;5003377;28;20329;-74
2023/02/08 14:59:38;;;;;;;101.40;42.47;;;;;;;;;;5004380;28;20219;-74
2023/02/08 15:13:34;;;;;;;119.68;51.67;;;;;;;;;;5003750;28;20203;-74
2023/02/08 15:16:30;;;;;;;31.73;17.25;;;;;;;;;;4997277;28;20234;-77
2023/02/08 15:18:58;;;;;;;134.50;59.88;;;;;;;;;;4996273;28;20543;-74
2023/02/08 15:24:17;;;;;;;79.22;33.45;;;;;;;;;;4993290;28;20237;-75
2023/02/08 15:27:07;;;;;;;69.15;28.13;;;;;;;;;;5009345;28;20587;-72
2023/02/08 15:30:01;;;;;;;30.98;15.60;;;;;;;;;;5002077;28;20301;-74
2023/02/08 15:32:42;;;;;;;21.77;11.45;;;;;;;;;;5000513;28;20631;-74
2023/02/08 15:35:24;;;;;;;83.63;33.45;;;;;;;;;;5001470;28;20618;-75
2023/02/08 15:38:05;;;;;;;66.35;27.70;;;;;;;;;;5002843;28;20584;-74
2023/02/08 15:43:29;;;;;;;66.28;25.52;;;;;;;;;;4974126;28;20296;-73
2023/02/08 15:46:00;;;;;;;49.33;19.17;;;;;;;;;;5014632;28;20226;-74
2023/02/08 15:48:39;;;;;;;94.95;36.42;;;;;;;;;;5013517;28;20224;-75
2023/02/08 15:51:18;;;;;;;17.05;10.13;;;;;;;;;;5015460;28;20283;-75
2023/02/08 15:54:03;;;;;;;68.80;27.70;;;;;;;;;;5014190;28;20213;-75
2023/02/08 15:56:52;;;;;;;83.00;34.15;;;;;;;;;;5013808;28;20218;-75
2023/02/08 15:59:37;;;;;;;121.05;45.35;;;;;;;;;;5015564;28;20261;-74
2023/02/08 16:02:21;;;;;;;7.15;6.35;;;;;;;;;;5018317;28;20222;-74
2023/02/08 16:04:51;;;;;;;9.60;7.32;;;;;;;;;;5020384;28;20233;-74
2023/02/08 16:07:36;;;;;;;75.60;28.83;;;;;;;;;;5019293;28;20222;-75
2023/02/08 16:10:08;;;;;;;95.15;35.00;;;;;;;;;;5015915;28;20212;-74
2023/02/08 16:12:46;;;;;;;13.27;8.10;;;;;;;;;;5016885;28;20221;-76
2023/02/08 16:15:38;;;;;;;55.45;21.10;;;;;;;;;;5018640;28;20229;-76
2023/02/08 16:21:09;;;;;;;10.82;8.68;;;;;;;;;;5009348;28;20265;-76
2023/02/08 16:23:53;;;;;;;114.00;49.53;;;;;;;;;;5019017;28;20290;-75
2023/02/08 16:26:26;;;;;;;97.55;39.50;;;;;;;;;;5004394;28;20221;-76
2023/02/08 16:29:02;;;;;;;108.40;43.53;;;;;;;;;;5019381;28;20309;-75
2023/02/08 16:31:30;;;;;;;83.53;36.00;;;;;;;;;;5004941;28;20207;-74
2023/02/08 16:34:02;;;;;;;97.35;38.72;;;;;;;;;;4998280;28;20389;-74
2023/02/08 16:36:38;;;;;;;111.38;42.92;;;;;;;;;;4999168;28;20600;-75
2023/02/08 16:39:30;;;;;;;94.10;38.10;;;;;;;;;;5008186;28;20276;-75
2023/02/08 16:42:21;;;;;;;93.10;39.40;;;;;;;;;;5013591;28;20699;-73
2023/02/08 16:45:23;;;;;;;93.07;38.40;;;;;;;;;;5005562;28;20233;-75
2023/02/08 16:48:02;;;;;;;86.07;37.88;;;;;;;;;;5014326;28;20348;-75
2023/02/08 16:50:34;;;;;;;101.10;42.05;;;;;;;;;;5016106;28;20302;-74
2023/02/08 16:53:05;;;;;;;90.38;39.50;;;;;;;;;;5016874;28;20210;-75
2023/02/08 16:55:37;;;;;;;85.28;35.05;;;;;;;;;;5016929;28;20322;-74
2023/02/08 16:58:06;;;;;;;93.88;44.70;;;;;;;;;;5014485;28;20219;-73
2023/02/08 17:00:34;;;;;;;92.82;41.90;;;;;;;;;;5015925;28;20249;-74
2023/02/08 17:03:02;;;;;;;87.90;37.55;;;;;;;;;;5015128;28;20523;-75
2023/02/08 17:08:59;;;;;;;87.82;37.42;;;;;;;;;;5013484;28;20691;-76
2023/02/08 17:11:47;;;;;;;92.57;41.58;;;;;;;;;;5000364;28;20207;-74
2023/02/08 17:14:19;;;;;;;88.55;38.13;;;;;;;;;;5014880;28;20214;-74
2023/02/08 17:16:49;;;;;;;90.50;43.88;;;;;;;;;;5016910;28;20277;-76
2023/02/08 17:19:17;;;;;;;71.93;33.78;;;;;;;;;;5016966;28;20226;-74
2023/02/08 17:21:45;;;;;;;86.97;37.88;;;;;;;;;;5014626;28;20243;-74
2023/02/08 17:24:21;;;;;;;88.07;40.63;;;;;;;;;;5012381;28;20211;-73
2023/02/08 17:26:55;;;;;;;90.10;41.47;;;;;;;;;;5004786;28;20246;-76
2023/02/08 17:29:50;;;;;;;89.03;38.97;;;;;;;;;;5015716;28;20618;-73
2023/02/08 17:32:18;;;;;;;78.38;33.30;;;;;;;;;;5019075;28;20210;-76
2023/02/08 17:34:55;;;;;;;89.47;41.13;;;;;;;;;;5025625;28;20494;-74
2023/02/08 17:37:31;;;;;;;87.55;40.72;;;;;;;;;;5017714;28;20222;-74
2023/02/08 17:40:06;;;;;;;83.43;36.90;;;;;;;;;;5013085;28;20222;-74
2023/02/08 17:42:45;;;;;;;95.18;38.55;;;;;;;;;;5017622;28;20222;-75
2023/02/08 17:45:14;;;;;;;74.28;39.22;;;;;;;;;;5007391;28;20222;-75